Detroit, Michigan
Traffic Map
Current Weather Conditions
Detroit, Michigan
Overcast Light Rain
Overcast
59°
Feels Like: 59°
Wind Chill: 59° Ceiling: 800
Heat Index: 59° Visibility: 5mi
Dew Point: 59° Wind: 7mph
Humidity: 100% Direction: 90° (E)
Pressure: 30.06in Gusts: 0mph
Raw Report DataCYQG 010805Z 09006KT 5SM -RA BR OVC008 15/15 A3006 RMK SF8 SLP179
Traffic Incident Summary
Active as of:
Severity:
Category:
InformationThere was an issue retrieving the traffic information for this location. Please try a different location or try again shortly.
Advertisements
Track Severe Weather on mobile